Time;durP1;ratioP1;P1;durP2;ratioP2;P2;SDS_P1;SDS_P2;PMS_P1;PMS_P2;Temp;Humidity;BMP_temperature;BMP_pressure;BME280_temperature;BME280_humidity;BME280_pressure;Samples;Min_cycle;Max_cycle;Signal;HPM_P1;HPM_P2
2021/08/01 00:00:59;;;;;;;3.33;2.23;;;;;;;25.97;42.28;100815.00;5092592;28;20173;-60
2021/08/01 00:03:25;;;;;;;6.13;2.13;;;;;;;25.88;42.87;100792.63;5111280;28;20179;-60
2021/08/01 00:05:50;;;;;;;3.43;2.20;;;;;;;25.90;43.15;100801.41;5110272;28;20202;-60
2021/08/01 00:08:15;;;;;;;4.60;2.20;;;;;;;25.87;43.73;100802.44;5110953;28;20170;-60
2021/08/01 00:10:41;;;;;;;5.17;2.40;;;;;;;25.88;43.82;100799.09;5092730;28;20603;-60
2021/08/01 00:13:07;;;;;;;13.77;2.90;;;;;;;25.90;44.91;100798.56;5110238;28;20174;-60
2021/08/01 00:15:32;;;;;;;13.73;2.90;;;;;;;25.89;45.99;100802.69;5111119;28;20173;-61
2021/08/01 00:17:58;;;;;;;7.40;2.53;;;;;;;25.83;45.56;100799.13;5110211;28;20174;-61
2021/08/01 00:20:23;;;;;;;4.17;2.17;;;;;;;25.76;46.07;100794.84;5111130;28;20174;-61
2021/08/01 00:22:49;;;;;;;16.47;3.70;;;;;;;25.74;46.06;100780.41;5110743;28;20182;-60
2021/08/01 00:25:14;;;;;;;8.80;3.00;;;;;;;25.68;46.69;100790.28;5110291;28;20761;-60
2021/08/01 00:27:40;;;;;;;7.77;2.87;;;;;;;25.62;46.64;100792.41;5110190;28;20601;-60
2021/08/01 00:30:09;;;;;;;3.77;2.33;;;;;;;25.52;46.75;100782.72;5110452;28;20182;-60
2021/08/01 00:32:36;;;;;;;4.13;2.87;;;;;;;24.87;45.69;100694.13;5110940;28;20181;-60
2021/08/01 00:35:02;;;;;;;6.33;3.03;;;;;;;25.47;45.43;100790.00;5110801;28;20628;-60
2021/08/01 00:37:27;;;;;;;5.70;3.30;;;;;;;25.46;44.49;100782.00;5109924;28;20181;-60
2021/08/01 00:39:53;;;;;;;5.90;3.10;;;;;;;25.38;44.16;100775.41;5111157;28;20182;-61
2021/08/01 00:42:19;;;;;;;4.93;3.00;;;;;;;25.31;43.83;100767.44;5110907;28;20371;-60
2021/08/01 00:44:44;;;;;;;5.53;3.23;;;;;;;25.36;44.92;100763.78;5110799;28;20169;-61
2021/08/01 00:47:11;;;;;;;5.67;2.90;;;;;;;25.36;43.87;100769.47;5109794;28;20186;-60
2021/08/01 00:49:37;;;;;;;4.90;2.80;;;;;;;25.31;43.88;100767.44;5110902;28;20179;-60
2021/08/01 00:52:07;;;;;;;5.63;2.90;;;;;;;25.47;43.83;100777.84;5092210;28;20193;-60
2021/08/01 00:54:33;;;;;;;5.33;2.77;;;;;;;25.41;42.64;100780.00;5110883;28;20179;-60
2021/08/01 00:57:01;;;;;;;2.83;2.40;;;;;;;25.47;43.27;100783.53;5109785;28;20675;-60
2021/08/01 00:59:27;;;;;;;7.17;3.13;;;;;;;25.48;45.40;100777.34;5110608;28;20230;-60
2021/08/01 01:01:59;;;;;;;4.43;2.60;;;;;;;25.51;44.81;100790.47;5110618;28;20174;-60
2021/08/01 01:04:41;;;;;;;6.27;3.13;;;;;;;25.44;44.24;100776.09;5110836;28;20186;-60
2021/08/01 01:07:16;;;;;;;6.63;2.90;;;;;;;24.92;45.30;100685.56;5109816;28;20643;-61
2021/08/01 01:09:57;;;;;;;4.70;2.80;;;;;;;25.43;45.23;100774.56;5092392;28;20178;-60
2021/08/01 01:12:46;;;;;;;7.30;3.13;;;;;;;25.22;46.17;100767.75;5110449;28;20210;-61
2021/08/01 01:15:20;;;;;;;6.77;3.30;;;;;;;25.34;45.77;100794.78;5091781;28;20280;-60
2021/08/01 01:17:49;;;;;;;9.53;3.40;;;;;;;25.30;46.03;100783.72;5109685;28;20166;-60
2021/08/01 01:20:26;;;;;;;5.07;3.20;;;;;;;25.20;46.29;100788.16;5110494;28;20171;-60
2021/08/01 01:23:15;;;;;;;6.73;3.20;;;;;;;25.18;46.58;100802.09;5110529;28;20281;-60
2021/08/01 01:26:01;;;;;;;6.03;3.00;;;;;;;25.16;46.86;100787.69;5113570;28;20194;-60
2021/08/01 01:28:33;;;;;;;5.23;2.63;;;;;;;25.18;47.06;100793.59;5114007;28;20190;-60
2021/08/01 01:31:16;;;;;;;4.53;2.77;;;;;;;25.16;47.23;100792.56;5113783;28;20246;-60
2021/08/01 01:33:57;;;;;;;4.00;2.80;;;;;;;25.14;47.05;100789.50;5113941;28;20178;-60
2021/08/01 01:36:28;;;;;;;3.70;2.90;;;;;;;24.45;47.01;100694.69;5113114;28;20214;-60
2021/08/01 01:38:55;;;;;;;4.67;3.17;;;;;;;25.07;46.88;100796.53;5113773;28;20199;-60
2021/08/01 01:41:24;;;;;;;6.50;3.20;;;;;;;24.64;45.78;100723.94;5113805;28;20201;-60
2021/08/01 01:43:52;;;;;;;4.73;3.60;;;;;;;24.63;46.88;100734.53;5113631;27;20230;-60
2021/08/01 01:46:18;;;;;;;6.27;3.60;;;;;;;24.78;46.84;100754.00;5112834;28;20638;-60
2021/08/01 01:48:45;;;;;;;7.30;4.00;;;;;;;24.46;47.23;100718.91;5113566;28;20315;-60
2021/08/01 01:51:12;;;;;;;6.27;3.60;;;;;;;24.94;47.63;100798.44;5113825;28;20663;-60
2021/08/01 01:53:39;;;;;;;5.60;3.37;;;;;;;24.90;47.65;100795.13;5113595;28;20246;-60
2021/08/01 01:56:05;;;;;;;5.83;3.40;;;;;;;24.82;47.67;100777.91;5112593;28;20178;-60
2021/08/01 01:58:31;;;;;;;8.03;4.30;;;;;;;24.59;48.70;100787.88;5107772;28;20179;-60
2021/08/01 02:00:56;;;;;;;6.23;3.27;;;;;;;24.58;49.20;100800.50;5092942;28;20179;-60
2021/08/01 02:03:22;;;;;;;6.73;3.20;;;;;;;24.55;49.34;100797.91;5074735;28;20236;-60
2021/08/01 02:05:48;;;;;;;6.30;3.20;;;;;;;24.55;49.29;100795.06;5092203;28;20207;-60
2021/08/01 02:08:13;;;;;;;6.47;3.33;;;;;;;24.50;49.30;100790.19;5092722;28;20186;-61
2021/08/01 02:10:47;;;;;;;5.50;3.50;;;;;;;24.48;49.34;100793.59;5108981;28;20182;-60
2021/08/01 02:13:17;;;;;;;4.00;3.03;;;;;;;24.46;49.11;100792.56;5113213;28;20186;-60
2021/08/01 02:15:50;;;;;;;5.07;3.27;;;;;;;24.45;49.70;100793.84;5112939;28;20250;-60
2021/08/01 02:18:31;;;;;;;4.13;2.90;;;;;;;24.44;49.62;100795.91;5113042;28;20231;-60
2021/08/01 02:20:57;;;;;;;3.70;3.07;;;;;;;24.31;50.15;100787.22;5112999;28;20163;-60
2021/08/01 02:23:30;;;;;;;4.40;3.23;;;;;;;24.19;50.14;100763.09;5113277;28;20227;-60
2021/08/01 02:25:57;;;;;;;5.73;3.40;;;;;;;24.38;50.34;100805.75;5112228;28;20296;-61
2021/08/01 02:28:27;;;;;;;5.40;3.03;;;;;;;24.35;50.25;100801.09;5112626;28;20182;-60
2021/08/01 02:30:56;;;;;;;6.60;3.43;;;;;;;24.09;50.73;100776.03;5112406;28;20564;-60
2021/08/01 02:33:26;;;;;;;4.80;3.00;;;;;;;24.27;50.72;100803.75;5112856;28;20189;-60
2021/08/01 02:35:58;;;;;;;6.60;3.03;;;;;;;23.96;50.94;100758.06;5111008;28;20532;-60
2021/08/01 02:38:25;;;;;;;8.87;3.20;;;;;;;24.20;51.50;100812.03;5112732;28;20166;-60
2021/08/01 02:40:53;;;;;;;5.63;3.30;;;;;;;24.06;51.49;100811.03;5112467;28;20254;-60
2021/08/01 02:43:21;;;;;;;5.90;3.20;;;;;;;23.95;51.55;100804.66;5112532;28;20301;-60
2021/08/01 02:45:47;;;;;;;6.47;3.20;;;;;;;24.01;52.04;100823.13;5111826;28;20255;-60
2021/08/01 02:48:16;;;;;;;6.73;3.60;;;;;;;23.86;52.09;100819.84;5112158;28;20174;-59
2021/08/01 02:50:48;;;;;;;5.00;3.37;;;;;;;23.93;52.37;100829.88;5112507;28;20175;-60
2021/08/01 02:53:17;;;;;;;7.93;3.23;;;;;;;23.93;52.43;100841.97;5112390;28;20178;-59
2021/08/01 02:55:43;;;;;;;7.23;3.70;;;;;;;23.93;52.76;100841.97;5111870;28;20178;-60
2021/08/01 02:58:09;;;;;;;8.33;3.77;;;;;;;23.93;53.07;100846.84;5111510;28;20649;-60
2021/08/01 03:00:36;;;;;;;7.60;3.40;;;;;;;23.92;53.31;100848.16;5112409;28;20186;-60
2021/08/01 03:03:05;;;;;;;7.57;3.47;;;;;;;23.89;53.73;100852.03;5112102;28;20243;-60
2021/08/01 03:05:31;;;;;;;6.47;3.67;;;;;;;23.86;53.65;100856.63;5112096;28;20274;-60
2021/08/01 03:07:57;;;;;;;5.57;3.00;;;;;;;23.85;53.09;100857.16;5111180;28;20315;-60
2021/08/01 03:10:23;;;;;;;8.77;3.93;;;;;;;23.76;54.07;100852.53;5111943;28;20190;-60
2021/08/01 03:12:50;;;;;;;7.17;3.90;;;;;;;23.74;54.23;100848.69;5111888;28;20183;-60
2021/08/01 03:15:17;;;;;;;8.97;3.80;;;;;;;23.76;53.77;100851.75;5112096;28;20166;-60
2021/08/01 03:17:43;;;;;;;9.37;4.20;;;;;;;23.69;53.67;100855.13;5092805;28;20178;-60
2021/08/01 03:20:10;;;;;;;5.67;3.53;;;;;;;23.72;53.43;100857.69;5111839;28;20216;-60
2021/08/01 03:22:35;;;;;;;6.23;3.37;;;;;;;23.75;51.99;100855.88;5111838;28;20178;-60
2021/08/01 03:25:02;;;;;;;8.57;3.40;;;;;;;23.78;51.27;100852.78;5111887;28;20585;-60
2021/08/01 03:27:28;;;;;;;7.50;3.33;;;;;;;23.82;51.47;100849.69;5110751;28;20174;-60
2021/08/01 03:29:53;;;;;;;5.97;3.40;;;;;;;23.00;50.97;100729.72;5111563;28;20563;-60
2021/08/01 03:32:19;;;;;;;5.97;3.43;;;;;;;23.88;51.73;100844.78;5111702;28;20660;-60
2021/08/01 03:34:45;;;;;;;7.60;3.50;;;;;;;23.59;51.40;100789.53;5111612;28;20171;-60
2021/08/01 03:37:10;;;;;;;4.50;3.37;;;;;;;23.88;51.15;100842.72;5110655;28;20188;-60
2021/08/01 03:39:36;;;;;;;6.87;3.60;;;;;;;23.89;50.31;100854.84;5111577;28;20178;-60
2021/08/01 03:42:03;;;;;;;9.37;3.20;;;;;;;22.95;51.58;100712.78;5111210;28;20226;-60
2021/08/01 03:44:30;;;;;;;6.93;3.00;;;;;;;23.79;51.76;100845.81;5111580;28;20185;-60
2021/08/01 03:46:56;;;;;;;3.50;3.00;;;;;;;23.65;52.01;100846.13;5110357;28;20210;-60
2021/08/01 03:49:21;;;;;;;5.30;3.53;;;;;;;23.63;52.00;100851.50;5111451;28;20184;-60
2021/08/01 03:51:47;;;;;;;6.40;3.60;;;;;;;23.57;51.89;100845.88;5111197;28;20538;-60
2021/08/01 03:54:12;;;;;;;5.70;3.27;;;;;;;23.42;52.64;100862.34;5111376;28;20174;-60
2021/08/01 03:56:43;;;;;;;6.03;3.97;;;;;;;23.22;53.24;100853.34;5110553;28;20648;-60
2021/08/01 03:59:09;;;;;;;6.90;3.77;;;;;;;22.23;53.07;100692.16;5110984;28;20212;-60
2021/08/01 04:01:36;;;;;;;4.93;3.53;;;;;;;22.79;53.28;100787.78;5111303;28;20258;-60
2021/08/01 04:04:01;;;;;;;6.27;3.90;;;;;;;22.37;52.88;100730.69;5110824;28;20635;-60
2021/08/01 04:06:27;;;;;;;5.63;3.90;;;;;;;23.22;52.88;100859.00;5091990;28;20225;-60
2021/08/01 04:08:52;;;;;;;7.40;4.50;;;;;;;23.37;53.12;100879.31;5110610;28;20174;-59
2021/08/01 04:11:18;;;;;;;7.73;4.00;;;;;;;22.93;53.33;100800.88;5111097;28;20595;-60
2021/08/01 04:13:43;;;;;;;5.37;3.37;;;;;;;23.36;53.09;100861.59;5111196;28;20170;-59
2021/08/01 04:16:09;;;;;;;5.53;3.63;;;;;;;23.42;52.57;100861.56;5110234;28;20261;-59
2021/08/01 04:18:35;;;;;;;4.57;3.70;;;;;;;23.12;52.12;100835.84;5110874;28;20682;-59
2021/08/01 04:21:05;;;;;;;7.30;4.17;;;;;;;23.57;51.16;100868.50;5110873;28;20687;-60
2021/08/01 04:23:31;;;;;;;5.57;3.97;;;;;;;23.60;53.01;100884.44;5110917;28;20189;-60
2021/08/01 04:25:56;;;;;;;7.90;4.00;;;;;;;23.57;53.56;100891.13;5109929;28;20202;-60
2021/08/01 04:28:22;;;;;;;8.03;4.17;;;;;;;23.31;52.76;100887.03;5111122;28;20174;-60
2021/08/01 04:30:47;;;;;;;7.50;4.10;;;;;;;23.24;52.42;100879.06;5110497;28;20178;-60
2021/08/01 04:33:13;;;;;;;4.80;3.80;;;;;;;23.41;52.07;100897.59;5110959;28;20263;-60
2021/08/01 04:35:38;;;;;;;6.30;4.03;;;;;;;23.42;52.94;100907.59;5110514;28;20166;-60
2021/08/01 04:38:04;;;;;;;9.13;3.97;;;;;;;23.28;53.31;100907.88;5110219;28;20576;-60
2021/08/01 04:40:29;;;;;;;6.03;3.90;;;;;;;23.05;53.81;100897.78;5111185;28;20186;-60
2021/08/01 04:42:54;;;;;;;8.10;4.00;;;;;;;23.17;54.97;100890.84;5100531;28;20289;-60
2021/08/01 04:45:20;;;;;;;7.23;4.00;;;;;;;23.22;53.57;100885.22;5104016;28;20222;-60
2021/08/01 04:47:45;;;;;;;8.77;3.87;;;;;;;23.40;53.67;100892.44;5109974;28;20166;-59
2021/08/01 04:50:11;;;;;;;8.13;3.80;;;;;;;23.61;52.62;100897.31;5110795;28;20560;-60
2021/08/01 04:52:36;;;;;;;5.80;3.67;;;;;;;23.79;53.14;100898.84;5110712;28;20210;-61
2021/08/01 04:55:02;;;;;;;7.73;3.50;;;;;;;23.83;53.78;100885.19;5110644;28;20170;-60
2021/08/01 04:57:27;;;;;;;11.53;4.07;;;;;;;24.00;54.12;100883.88;5109826;28;20640;-60
2021/08/01 04:59:53;;;;;;;7.47;4.10;;;;;;;24.22;53.80;100897.22;5113989;28;20217;-60
2021/08/01 05:02:21;;;;;;;6.33;3.80;;;;;;;24.35;53.95;100901.03;5114483;28;20232;-60
2021/08/01 05:04:47;;;;;;;6.30;4.40;;;;;;;24.02;52.12;100826.75;5100276;27;20191;-60
2021/08/01 05:07:12;;;;;;;10.83;4.07;;;;;;;24.47;52.07;100894.00;5098285;27;20544;-60
2021/08/01 05:09:38;;;;;;;5.93;4.10;;;;;;;24.63;52.37;100895.25;5108116;28;20615;-60
2021/08/01 05:12:03;;;;;;;6.43;3.90;;;;;;;24.60;52.05;100897.09;5112726;28;20186;-60
2021/08/01 05:14:30;;;;;;;7.37;4.40;;;;;;;24.76;51.81;100887.72;5112163;28;20246;-60
2021/08/01 05:16:56;;;;;;;5.20;3.70;;;;;;;24.91;51.26;100890.19;5109335;28;20178;-60
2021/08/01 05:19:22;;;;;;;8.53;4.00;;;;;;;25.00;50.97;100896.34;5111625;28;20194;-60
2021/08/01 05:21:47;;;;;;;5.97;3.60;;;;;;;25.08;50.57;100888.78;5102456;28;20174;-59
2021/08/01 05:24:13;;;;;;;7.13;3.67;;;;;;;25.19;50.74;100896.47;5097445;28;20281;-60
2021/08/01 05:26:38;;;;;;;6.63;4.00;;;;;;;25.31;50.93;100901.56;5086616;28;20202;-60
2021/08/01 05:29:03;;;;;;;8.03;4.20;;;;;;;25.44;50.65;100895.25;5097753;28;20197;-60
2021/08/01 05:31:29;;;;;;;9.73;4.10;;;;;;;25.56;50.27;100900.31;5103699;28;20191;-60
2021/08/01 05:33:55;;;;;;;4.93;4.10;;;;;;;25.62;50.70;100901.03;5112543;28;20720;-60
2021/08/01 05:36:20;;;;;;;7.80;4.20;;;;;;;25.54;50.91;100874.53;5108748;28;20186;-60
2021/08/01 05:38:46;;;;;;;6.43;4.60;;;;;;;25.05;50.99;100792.69;5111622;28;20188;-60
2021/08/01 05:41:17;;;;;;;7.90;4.70;;;;;;;25.75;51.80;100895.47;5111523;28;20201;-60
2021/08/01 05:43:43;;;;;;;9.07;4.53;;;;;;;25.88;51.83;100894.84;5110055;28;20308;-60
2021/08/01 05:46:12;;;;;;;7.87;4.87;;;;;;;25.99;51.48;100897.63;5109267;28;20281;-60
2021/08/01 05:48:38;;;;;;;10.37;4.73;;;;;;;26.08;51.13;100900.06;5111370;28;20564;-60
2021/08/01 05:51:07;;;;;;;7.47;4.93;;;;;;;26.14;51.10;100893.03;5111332;28;20577;-60
2021/08/01 05:53:33;;;;;;;5.47;4.30;;;;;;;25.85;50.12;100841.97;5112356;28;20189;-60
2021/08/01 05:56:06;;;;;;;6.47;4.50;;;;;;;25.45;49.72;100781.25;5109874;28;20186;-60
2021/08/01 05:58:32;;;;;;;6.33;4.10;;;;;;;26.39;49.77;100894.56;5110661;28;20197;-60
2021/08/01 06:00:57;;;;;;;6.53;4.40;;;;;;;26.51;49.44;100895.94;5111175;28;20622;-60
2021/08/01 06:03:23;;;;;;;8.60;3.83;;;;;;;26.60;48.84;100891.97;5111374;28;20206;-60
2021/08/01 06:05:48;;;;;;;4.67;3.30;;;;;;;26.72;46.60;100899.81;5110271;28;20723;-59
2021/08/01 06:08:13;;;;;;;5.60;3.57;;;;;;;26.84;47.37;100897.59;5110940;28;20376;-60
2021/08/01 06:10:39;;;;;;;8.03;3.63;;;;;;;26.99;46.02;100893.00;5110164;28;20210;-60
2021/08/01 06:13:04;;;;;;;6.73;3.90;;;;;;;26.86;46.81;100853.09;5110807;28;20190;-60
2021/08/01 06:15:30;;;;;;;5.97;3.87;;;;;;;27.27;47.13;100892.59;5111137;27;20170;-60
2021/08/01 06:17:55;;;;;;;6.40;3.83;;;;;;;27.41;45.88;100894.16;5110213;28;20230;-60
2021/08/01 06:20:21;;;;;;;9.10;3.93;;;;;;;27.43;43.97;100883.00;5110580;28;20235;-61
2021/08/01 06:22:46;;;;;;;7.73;4.30;;;;;;;27.55;44.25;100887.19;5110132;28;20183;-60
2021/08/01 06:25:11;;;;;;;7.23;3.90;;;;;;;27.39;43.66;100879.72;5110337;28;20202;-60
2021/08/01 06:27:37;;;;;;;4.87;3.73;;;;;;;27.59;44.81;100894.09;5109010;28;20651;-60
2021/08/01 06:30:03;;;;;;;6.60;3.50;;;;;;;27.66;45.50;100890.63;5108914;28;20174;-60
2021/08/01 06:32:28;;;;;;;5.17;3.43;;;;;;;27.47;45.39;100837.88;5110157;28;20553;-60
2021/08/01 06:34:54;;;;;;;6.17;3.80;;;;;;;27.97;43.92;100900.44;5110296;28;20182;-60
2021/08/01 06:37:19;;;;;;;3.90;3.03;;;;;;;28.01;41.85;100893.09;5110385;28;20648;-61
2021/08/01 06:39:44;;;;;;;5.27;3.20;;;;;;;28.15;41.50;100894.63;5092265;28;20182;-60
2021/08/01 06:42:10;;;;;;;6.10;3.50;;;;;;;28.29;40.38;100903.94;5111191;28;20290;-61
2021/08/01 06:44:35;;;;;;;7.43;3.27;;;;;;;28.19;40.77;100900.78;5110651;28;20261;-60
2021/08/01 06:47:01;;;;;;;6.20;3.67;;;;;;;28.48;40.84;100913.94;5109590;28;20695;-61
2021/08/01 06:49:26;;;;;;;6.03;3.50;;;;;;;28.55;40.44;100906.81;5106216;28;20542;-60
2021/08/01 06:51:52;;;;;;;7.20;3.50;;;;;;;28.45;40.61;100872.28;5095966;28;20182;-60
2021/08/01 06:54:17;;;;;;;7.27;3.30;;;;;;;28.69;41.54;100885.50;5109980;28;20179;-60
2021/08/01 06:56:43;;;;;;;5.13;3.40;;;;;;;28.47;43.14;100831.81;5108279;28;20170;-60
2021/08/01 06:59:08;;;;;;;6.40;4.30;;;;;;;29.08;42.76;100914.69;5104878;28;20201;-60
2021/08/01 07:01:37;;;;;;;8.77;3.40;;;;;;;29.15;41.64;100922.59;5110097;28;20273;-60
2021/08/01 07:04:03;;;;;;;5.03;3.67;;;;;;;29.18;41.68;100915.00;5110927;28;20186;-60
2021/08/01 07:06:28;;;;;;;7.65;3.85;;;;;;;29.12;41.49;100926.53;5108100;28;20228;-60
2021/08/01 07:08:54;;;;;;;9.25;3.92;;;;;;;29.06;41.80;100910.84;5109812;28;20183;-60
2021/08/01 07:11:19;;;;;;;6.88;3.47;;;;;;;29.27;43.20;100915.28;5092758;28;20201;-60
2021/08/01 07:13:46;;;;;;;9.90;3.53;;;;;;;29.39;42.66;100910.84;5093519;28;20680;-61
2021/08/01 07:16:11;;;;;;;6.65;3.53;;;;;;;29.43;43.66;100901.94;5103819;28;20225;-61
2021/08/01 07:18:37;;;;;;;8.00;3.70;;;;;;;29.14;41.56;100841.16;5098438;28;20218;-61
2021/08/01 07:21:02;;;;;;;4.80;3.40;;;;;;;29.21;41.46;100866.13;5109334;28;20239;-61
2021/08/01 07:23:28;;;;;;;5.93;3.20;;;;;;;29.49;41.67;100886.19;5110213;28;20206;-61
2021/08/01 07:25:53;;;;;;;5.95;3.50;;;;;;;29.51;39.30;100892.13;5090325;28;20206;-60
2021/08/01 07:28:19;;;;;;;4.85;3.17;;;;;;;29.58;39.64;100885.72;5108943;28;20703;-60
2021/08/01 07:30:44;;;;;;;5.32;2.92;;;;;;;29.58;38.46;100884.97;5108676;28;20177;-61
2021/08/01 07:33:10;;;;;;;6.43;2.58;;;;;;;29.58;37.16;100876.41;5108993;28;20179;-61
2021/08/01 07:35:35;;;;;;;5.90;2.90;;;;;;;29.65;38.40;100882.19;5108851;28;20170;-61
2021/08/01 07:38:01;;;;;;;3.83;2.88;;;;;;;29.85;38.26;100883.47;5108237;28;20231;-61
2021/08/01 07:40:27;;;;;;;5.03;3.28;;;;;;;29.93;38.83;100881.41;5109982;28;20811;-61
2021/08/01 07:42:52;;;;;;;6.53;2.88;;;;;;;30.04;39.47;100873.31;5110475;28;20307;-61
2021/08/01 07:47:50;;;;;;;3.85;2.70;;;;;;;30.02;40.00;100875.19;5109734;28;20559;-60
2021/08/01 07:50:15;;;;;;;4.18;2.83;;;;;;;30.04;39.58;100869.69;5110622;28;20269;-60
2021/08/01 07:52:40;;;;;;;6.30;3.03;;;;;;;30.27;39.11;100867.75;5110937;28;20252;-61
2021/08/01 07:55:08;;;;;;;4.95;2.92;;;;;;;30.40;39.24;100864.78;5110553;28;20174;-61
2021/08/01 07:57:34;;;;;;;3.63;2.95;;;;;;;30.50;39.43;100860.81;5109581;28;20253;-60
2021/08/01 08:00:04;;;;;;;5.78;2.90;;;;;;;30.68;39.02;100865.50;5103096;28;20265;-61
2021/08/01 08:02:30;;;;;;;3.75;2.70;;;;;;;30.78;38.75;100854.28;5092262;28;20178;-61
2021/08/01 08:04:55;;;;;;;4.78;3.05;;;;;;;30.79;38.65;100858.66;5110197;28;20185;-61
2021/08/01 08:07:21;;;;;;;3.58;2.70;;;;;;;30.96;37.70;100867.50;5109685;28;20735;-61
2021/08/01 08:09:47;;;;;;;4.30;2.95;;;;;;;30.74;38.00;100822.41;5110073;28;20189;-60
2021/08/01 08:12:13;;;;;;;4.63;2.88;;;;;;;30.53;36.48;100764.53;5110433;28;20178;-61
2021/08/01 08:14:39;;;;;;;5.05;2.97;;;;;;;31.31;36.02;100840.84;5110550;28;20178;-61
2021/08/01 08:17:05;;;;;;;4.72;3.20;;;;;;;31.45;35.61;100845.81;5109560;28;20193;-61
2021/08/01 08:19:31;;;;;;;9.27;3.83;;;;;;;31.46;35.80;100838.75;5110526;28;20217;-61
2021/08/01 08:21:56;;;;;;;5.68;3.80;;;;;;;31.47;35.34;100837.41;5110231;28;20175;-61
2021/08/01 08:24:23;;;;;;;6.80;4.18;;;;;;;31.22;33.82;100827.13;5110453;28;20185;-61
2021/08/01 08:26:48;;;;;;;10.93;3.92;;;;;;;31.35;34.20;100844.88;5109380;28;20267;-60
2021/08/01 08:29:15;;;;;;;8.25;3.75;;;;;;;30.79;35.84;100764.25;5110177;28;20170;-61
2021/08/01 08:31:40;;;;;;;4.88;3.25;;;;;;;31.25;34.88;100855.34;5110237;28;20178;-61
2021/08/01 08:34:06;;;;;;;7.75;3.35;;;;;;;31.22;34.74;100845.03;5112544;28;20174;-60
2021/08/01 08:36:31;;;;;;;6.13;3.33;;;;;;;31.32;35.23;100851.72;5113762;28;20189;-60
2021/08/01 08:38:57;;;;;;;5.45;3.10;;;;;;;31.47;34.70;100840.28;5114099;28;20617;-61
2021/08/01 08:41:24;;;;;;;8.63;3.88;;;;;;;31.47;35.37;100816.63;5114410;28;20253;-60
2021/08/01 08:43:49;;;;;;;7.65;3.58;;;;;;;31.65;34.85;100819.09;5114162;28;20229;-61
2021/08/01 08:46:18;;;;;;;5.05;3.60;;;;;;;31.80;34.09;100824.03;5113458;28;20572;-60
2021/08/01 08:48:44;;;;;;;4.97;3.20;;;;;;;31.89;34.06;100834.94;5114481;28;20178;-60
2021/08/01 08:51:10;;;;;;;7.82;3.30;;;;;;;31.92;33.67;100816.56;5113762;28;20185;-60
2021/08/01 08:53:46;;;;;;;6.03;3.58;;;;;;;32.10;33.96;100819.00;5114252;28;20184;-60
2021/08/01 08:56:14;;;;;;;6.47;3.58;;;;;;;31.66;32.89;100731.78;5113338;28;20162;-61
2021/08/01 08:58:42;;;;;;;7.90;3.63;;;;;;;31.79;33.61;100733.69;5113774;28;20576;-61
2021/08/01 09:01:07;;;;;;;4.45;2.95;;;;;;;32.36;33.44;100806.31;5114306;28;20572;-61
2021/08/01 09:03:33;;;;;;;4.57;3.53;;;;;;;32.70;34.56;100818.03;5114508;28;20170;-61
2021/08/01 09:05:59;;;;;;;6.43;3.28;;;;;;;32.84;33.08;100807.81;5113319;28;20575;-61
2021/08/01 09:08:26;;;;;;;5.70;3.30;;;;;;;32.92;32.52;100799.91;5114371;28;20235;-61
2021/08/01 09:10:55;;;;;;;8.48;2.90;;;;;;;32.89;32.82;100784.63;5113976;28;20647;-61
2021/08/01 09:13:47;;;;;;;6.00;3.35;;;;;;;33.17;32.50;100804.31;5114468;28;20182;-61
2021/08/01 09:16:14;;;;;;;6.07;3.40;;;;;;;33.31;31.77;100813.41;5113357;28;20182;-60
2021/08/01 09:18:40;;;;;;;6.47;3.60;;;;;;;33.10;32.06;100741.19;5114268;28;20197;-61
2021/08/01 09:21:06;;;;;;;4.88;3.30;;;;;;;33.69;32.22;100785.88;5114146;28;20218;-61
2021/08/01 09:23:33;;;;;;;6.78;3.70;;;;;;;33.70;31.65;100790.28;5114114;28;20691;-61
2021/08/01 09:26:01;;;;;;;5.70;3.60;;;;;;;33.79;32.42;100783.88;5113272;28;20216;-61
2021/08/01 09:28:28;;;;;;;7.95;3.65;;;;;;;34.12;31.21;100770.06;5114087;28;20202;-61
2021/08/01 09:31:03;;;;;;;5.38;3.30;;;;;;;34.44;31.80;100785.03;5113464;28;20170;-61
2021/08/01 09:33:34;;;;;;;8.38;3.50;;;;;;;34.60;30.83;100776.97;5113760;28;20174;-61
2021/08/01 09:36:05;;;;;;;6.78;3.67;;;;;;;34.78;30.30;100766.94;5112993;28;20206;-61
2021/08/01 09:38:52;;;;;;;7.72;3.53;;;;;;;35.05;30.15;100754.03;5113804;28;20231;-61
2021/08/01 09:41:22;;;;;;;8.23;3.80;;;;;;;35.24;30.64;100754.13;5113990;28;20174;-61
2021/08/01 09:43:56;;;;;;;7.00;3.50;;;;;;;35.40;30.74;100764.00;5113246;28;20226;-61
2021/08/01 09:46:36;;;;;;;10.15;3.92;;;;;;;35.38;30.85;100737.94;5112852;28;20210;-61
2021/08/01 09:49:12;;;;;;;7.78;3.17;;;;;;;35.63;30.32;100749.94;5113440;28;20261;-61
2021/08/01 09:51:38;;;;;;;9.60;3.47;;;;;;;35.86;29.24;100740.88;5113679;28;20174;-62
2021/08/01 09:54:05;;;;;;;8.02;3.28;;;;;;;36.03;29.12;100746.50;5113515;28;20564;-62
2021/08/01 09:56:30;;;;;;;9.55;3.55;;;;;;;36.13;30.08;100745.09;5112660;28;20310;-61
2021/08/01 09:58:56;;;;;;;7.90;3.70;;;;;;;36.29;29.33;100739.81;5113109;28;20719;-61
2021/08/01 10:01:21;;;;;;;6.28;3.30;;;;;;;36.25;29.18;100725.84;5113390;28;20685;-62
2021/08/01 10:03:49;;;;;;;6.10;3.00;;;;;;;36.46;28.99;100723.06;5105235;28;20557;-61
2021/08/01 10:06:22;;;;;;;7.68;3.45;;;;;;;36.29;29.49;100702.28;5112214;28;20709;-61
2021/08/01 10:08:52;;;;;;;7.45;3.60;;;;;;;36.41;28.86;100708.94;5113005;28;20334;-61
2021/08/01 10:11:21;;;;;;;6.53;3.72;;;;;;;36.49;28.63;100713.16;5113310;28;20174;-61
2021/08/01 10:13:49;;;;;;;7.00;3.80;;;;;;;36.57;29.06;100710.88;5112955;28;20181;-61
2021/08/01 10:16:14;;;;;;;6.20;3.17;;;;;;;36.49;29.20;100666.97;5112364;28;20174;-61
2021/08/01 10:18:42;;;;;;;8.68;3.28;;;;;;;36.99;28.34;100699.47;5113358;28;20227;-61
2021/08/01 10:21:09;;;;;;;4.45;3.28;;;;;;;37.15;27.71;100697.72;5112834;28;20178;-61
2021/08/01 10:23:40;;;;;;;6.82;3.60;;;;;;;37.33;28.10;100701.09;5113051;28;20662;-62
2021/08/01 10:26:07;;;;;;;6.03;3.30;;;;;;;37.38;27.43;100668.97;5112086;28;20202;-61
2021/08/01 10:28:37;;;;;;;9.48;3.60;;;;;;;37.72;27.38;100682.13;5112603;28;20193;-61
2021/08/01 10:31:07;;;;;;;5.68;3.25;;;;;;;37.83;27.62;100681.41;5112504;28;20619;-61
2021/08/01 10:33:40;;;;;;;8.68;3.75;;;;;;;37.93;27.45;100673.41;5112898;28;20178;-61
2021/08/01 10:36:08;;;;;;;5.75;3.40;;;;;;;37.82;27.34;100659.66;5111870;28;20532;-61
2021/08/01 10:38:37;;;;;;;6.53;3.42;;;;;;;37.81;27.10;100666.78;5113142;28;20178;-61
2021/08/01 10:41:07;;;;;;;7.45;3.80;;;;;;;37.92;26.58;100654.53;5094134;28;20182;-61
2021/08/01 10:43:36;;;;;;;5.43;3.50;;;;;;;38.09;26.94;100663.63;5112451;28;20292;-61
2021/08/01 10:46:02;;;;;;;6.50;3.60;;;;;;;38.09;26.42;100669.44;5111535;28;20229;-61
2021/08/01 10:48:29;;;;;;;9.45;4.20;;;;;;;38.15;27.05;100666.94;5112424;28;20185;-61
2021/08/01 10:50:56;;;;;;;7.72;3.83;;;;;;;37.51;27.53;100541.19;5112176;28;20182;-62
2021/08/01 10:53:25;;;;;;;6.93;3.70;;;;;;;38.51;26.43;100662.75;5112799;28;20186;-61
2021/08/01 10:56:06;;;;;;;6.53;3.90;;;;;;;38.33;25.25;100659.41;5110909;28;20178;-62
2021/08/01 10:58:38;;;;;;;6.22;3.53;;;;;;;38.56;25.24;100641.34;5112262;28;20659;-61
2021/08/01 11:01:08;;;;;;;8.52;3.70;;;;;;;38.83;25.56;100653.94;5112140;28;20648;-61
2021/08/01 11:03:39;;;;;;;5.88;3.88;;;;;;;38.95;24.78;100647.41;5094013;28;20560;-62
2021/08/01 11:06:25;;;;;;;5.40;3.60;;;;;;;39.12;24.80;100641.19;5111389;28;20270;-61
2021/08/01 11:09:07;;;;;;;7.22;4.00;;;;;;;38.95;24.87;100589.44;5111855;28;20184;-61
2021/08/01 11:11:33;;;;;;;6.05;3.75;;;;;;;39.21;24.30;100638.16;5111814;28;20178;-61
2021/08/01 11:13:58;;;;;;;7.35;4.13;;;;;;;39.37;24.30;100638.38;5112036;28;20182;-61
2021/08/01 11:16:30;;;;;;;8.93;3.88;;;;;;;39.50;24.70;100632.66;5111249;28;20410;-62
2021/08/01 11:18:55;;;;;;;7.00;3.60;;;;;;;39.15;25.05;100591.44;5111771;28;20179;-62
2021/08/01 11:21:35;;;;;;;9.10;3.72;;;;;;;39.45;24.26;100630.91;5111978;28;20445;-61
2021/08/01 11:24:06;;;;;;;8.32;3.92;;;;;;;39.40;24.98;100629.16;5111711;28;20178;-62
2021/08/01 11:26:31;;;;;;;7.45;4.10;;;;;;;39.57;24.36;100625.06;5111071;28;20194;-61
2021/08/01 11:29:06;;;;;;;8.50;3.80;;;;;;;39.63;23.58;100620.38;5111349;28;20231;-62